sensor_id;sensor_type;location;lat;lon;timestamp;P1;durP1;ratioP1;P2;durP2;ratioP2
51148;SDS011;37210;50.058;8.688;2023-04-21T00:02:00;23.92;;;21.60;;
51148;SDS011;37210;50.058;8.688;2023-04-21T00:04:28;24.23;;;21.85;;
51148;SDS011;37210;50.058;8.688;2023-04-21T00:06:57;25.45;;;22.92;;
51148;SDS011;37210;50.058;8.688;2023-04-21T00:09:26;25.67;;;23.13;;
51148;SDS011;37210;50.058;8.688;2023-04-21T00:11:55;26.02;;;23.63;;
51148;SDS011;37210;50.058;8.688;2023-04-21T00:14:22;24.98;;;22.60;;
51148;SDS011;37210;50.058;8.688;2023-04-21T00:16:49;26.85;;;24.20;;
51148;SDS011;37210;50.058;8.688;2023-04-21T00:19:18;26.02;;;23.33;;
51148;SDS011;37210;50.058;8.688;2023-04-21T00:21:45;25.55;;;23.02;;
51148;SDS011;37210;50.058;8.688;2023-04-21T00:24:13;26.30;;;23.67;;
51148;SDS011;37210;50.058;8.688;2023-04-21T00:26:40;26.77;;;23.98;;
51148;SDS011;37210;50.058;8.688;2023-04-21T00:29:10;27.17;;;24.58;;
51148;SDS011;37210;50.058;8.688;2023-04-21T00:31:37;28.13;;;25.50;;
51148;SDS011;37210;50.058;8.688;2023-04-21T00:34:05;28.40;;;25.50;;
51148;SDS011;37210;50.058;8.688;2023-04-21T00:36:32;27.55;;;24.88;;
51148;SDS011;37210;50.058;8.688;2023-04-21T00:38:59;26.15;;;23.65;;
51148;SDS011;37210;50.058;8.688;2023-04-21T00:41:28;26.05;;;23.45;;
51148;SDS011;37210;50.058;8.688;2023-04-21T00:44:00;26.58;;;23.88;;
51148;SDS011;37210;50.058;8.688;2023-04-21T00:46:32;26.95;;;24.23;;
51148;SDS011;37210;50.058;8.688;2023-04-21T00:49:02;28.52;;;25.73;;
51148;SDS011;37210;50.058;8.688;2023-04-21T00:51:33;27.08;;;24.42;;
51148;SDS011;37210;50.058;8.688;2023-04-21T00:54:03;28.23;;;25.33;;
51148;SDS011;37210;50.058;8.688;2023-04-21T00:56:35;28.95;;;26.00;;
51148;SDS011;37210;50.058;8.688;2023-04-21T00:59:04;27.45;;;24.73;;
51148;SDS011;37210;50.058;8.688;2023-04-21T01:01:33;29.65;;;26.63;;
51148;SDS011;37210;50.058;8.688;2023-04-21T01:04:02;28.33;;;25.58;;
51148;SDS011;37210;50.058;8.688;2023-04-21T01:06:31;26.95;;;24.20;;
51148;SDS011;37210;50.058;8.688;2023-04-21T01:09:00;27.55;;;24.63;;
51148;SDS011;37210;50.058;8.688;2023-04-21T01:11:29;28.05;;;25.25;;
51148;SDS011;37210;50.058;8.688;2023-04-21T01:13:57;26.73;;;24.02;;
51148;SDS011;37210;50.058;8.688;2023-04-21T01:16:24;26.63;;;24.00;;
51148;SDS011;37210;50.058;8.688;2023-04-21T01:18:54;27.02;;;24.27;;
51148;SDS011;37210;50.058;8.688;2023-04-21T01:21:21;28.35;;;25.42;;
51148;SDS011;37210;50.058;8.688;2023-04-21T01:23:50;27.98;;;25.10;;
51148;SDS011;37210;50.058;8.688;2023-04-21T01:26:18;27.60;;;24.67;;
51148;SDS011;37210;50.058;8.688;2023-04-21T01:28:47;29.80;;;26.83;;
51148;SDS011;37210;50.058;8.688;2023-04-21T01:31:15;29.58;;;26.42;;
51148;SDS011;37210;50.058;8.688;2023-04-21T01:33:45;27.85;;;25.15;;
51148;SDS011;37210;50.058;8.688;2023-04-21T01:36:13;28.13;;;25.27;;
51148;SDS011;37210;50.058;8.688;2023-04-21T01:38:40;27.73;;;25.02;;
51148;SDS011;37210;50.058;8.688;2023-04-21T01:41:10;27.45;;;24.65;;
51148;SDS011;37210;50.058;8.688;2023-04-21T01:43:38;26.80;;;24.30;;
51148;SDS011;37210;50.058;8.688;2023-04-21T01:46:07;26.48;;;23.77;;
51148;SDS011;37210;50.058;8.688;2023-04-21T01:48:37;25.80;;;23.42;;
51148;SDS011;37210;50.058;8.688;2023-04-21T01:51:05;25.80;;;23.17;;
51148;SDS011;37210;50.058;8.688;2023-04-21T01:53:33;26.40;;;23.52;;
51148;SDS011;37210;50.058;8.688;2023-04-21T01:56:01;26.73;;;23.83;;
51148;SDS011;37210;50.058;8.688;2023-04-21T01:58:31;27.77;;;24.80;;
51148;SDS011;37210;50.058;8.688;2023-04-21T02:00:59;25.50;;;23.00;;
51148;SDS011;37210;50.058;8.688;2023-04-21T02:03:26;25.85;;;23.30;;
51148;SDS011;37210;50.058;8.688;2023-04-21T02:05:53;27.13;;;24.33;;
51148;SDS011;37210;50.058;8.688;2023-04-21T02:08:21;25.90;;;23.08;;
51148;SDS011;37210;50.058;8.688;2023-04-21T02:10:48;25.70;;;23.10;;
51148;SDS011;37210;50.058;8.688;2023-04-21T02:13:16;26.23;;;23.60;;
51148;SDS011;37210;50.058;8.688;2023-04-21T02:15:45;26.27;;;23.70;;
51148;SDS011;37210;50.058;8.688;2023-04-21T02:18:12;25.70;;;23.20;;
51148;SDS011;37210;50.058;8.688;2023-04-21T02:20:39;28.35;;;25.38;;
51148;SDS011;37210;50.058;8.688;2023-04-21T02:23:07;26.83;;;23.92;;
51148;SDS011;37210;50.058;8.688;2023-04-21T02:25:34;26.77;;;23.88;;
51148;SDS011;37210;50.058;8.688;2023-04-21T02:28:01;25.85;;;23.15;;
51148;SDS011;37210;50.058;8.688;2023-04-21T02:30:29;25.40;;;22.85;;
51148;SDS011;37210;50.058;8.688;2023-04-21T02:32:58;24.40;;;21.92;;
51148;SDS011;37210;50.058;8.688;2023-04-21T02:35:26;25.65;;;23.15;;
51148;SDS011;37210;50.058;8.688;2023-04-21T02:37:54;24.52;;;22.10;;
51148;SDS011;37210;50.058;8.688;2023-04-21T02:40:24;24.98;;;22.55;;
51148;SDS011;37210;50.058;8.688;2023-04-21T02:42:52;25.60;;;23.10;;
51148;SDS011;37210;50.058;8.688;2023-04-21T02:45:20;26.27;;;23.67;;
51148;SDS011;37210;50.058;8.688;2023-04-21T02:47:51;26.90;;;24.15;;
51148;SDS011;37210;50.058;8.688;2023-04-21T02:50:20;28.17;;;25.25;;
51148;SDS011;37210;50.058;8.688;2023-04-21T02:52:48;25.95;;;23.30;;
51148;SDS011;37210;50.058;8.688;2023-04-21T02:55:16;24.85;;;22.35;;
51148;SDS011;37210;50.058;8.688;2023-04-21T02:57:44;27.05;;;24.27;;
51148;SDS011;37210;50.058;8.688;2023-04-21T03:00:13;28.50;;;25.50;;
51148;SDS011;37210;50.058;8.688;2023-04-21T03:02:42;25.70;;;23.20;;
51148;SDS011;37210;50.058;8.688;2023-04-21T03:05:10;24.90;;;22.40;;
51148;SDS011;37210;50.058;8.688;2023-04-21T03:07:40;25.33;;;22.80;;
51148;SDS011;37210;50.058;8.688;2023-04-21T03:10:10;26.77;;;24.10;;
51148;SDS011;37210;50.058;8.688;2023-04-21T03:12:38;27.55;;;24.77;;
51148;SDS011;37210;50.058;8.688;2023-04-21T03:15:06;26.90;;;24.17;;
51148;SDS011;37210;50.058;8.688;2023-04-21T03:17:36;28.30;;;25.05;;
51148;SDS011;37210;50.058;8.688;2023-04-21T03:20:05;26.80;;;24.05;;
51148;SDS011;37210;50.058;8.688;2023-04-21T03:22:34;27.00;;;24.25;;
51148;SDS011;37210;50.058;8.688;2023-04-21T03:25:04;29.75;;;26.58;;
51148;SDS011;37210;50.058;8.688;2023-04-21T03:27:33;27.13;;;24.52;;
51148;SDS011;37210;50.058;8.688;2023-04-21T03:30:03;27.58;;;24.58;;
51148;SDS011;37210;50.058;8.688;2023-04-21T03:32:33;31.38;;;27.23;;
51148;SDS011;37210;50.058;8.688;2023-04-21T03:35:01;30.65;;;26.55;;
51148;SDS011;37210;50.058;8.688;2023-04-21T03:37:28;33.90;;;27.40;;
51148;SDS011;37210;50.058;8.688;2023-04-21T03:39:56;39.67;;;28.45;;
51148;SDS011;37210;50.058;8.688;2023-04-21T03:42:26;33.83;;;27.08;;
51148;SDS011;37210;50.058;8.688;2023-04-21T03:44:58;31.02;;;26.70;;
51148;SDS011;37210;50.058;8.688;2023-04-21T03:47:35;29.27;;;24.77;;
51148;SDS011;37210;50.058;8.688;2023-04-21T03:50:06;34.90;;;27.40;;
51148;SDS011;37210;50.058;8.688;2023-04-21T03:52:34;39.30;;;27.17;;
51148;SDS011;37210;50.058;8.688;2023-04-21T03:55:03;64.13;;;31.83;;
51148;SDS011;37210;50.058;8.688;2023-04-21T03:57:35;34.05;;;27.55;;
51148;SDS011;37210;50.058;8.688;2023-04-21T04:00:05;36.33;;;27.48;;
51148;SDS011;37210;50.058;8.688;2023-04-21T04:02:38;50.67;;;27.40;;
51148;SDS011;37210;50.058;8.688;2023-04-21T04:05:07;35.72;;;27.65;;
51148;SDS011;37210;50.058;8.688;2023-04-21T04:07:35;64.75;;;28.13;;
51148;SDS011;37210;50.058;8.688;2023-04-21T04:10:03;49.33;;;26.50;;
51148;SDS011;37210;50.058;8.688;2023-04-21T04:12:32;54.17;;;26.75;;
51148;SDS011;37210;50.058;8.688;2023-04-21T04:15:02;38.92;;;24.05;;
51148;SDS011;37210;50.058;8.688;2023-04-21T04:17:31;33.28;;;24.50;;
51148;SDS011;37210;50.058;8.688;2023-04-21T04:19:58;39.83;;;25.30;;
51148;SDS011;37210;50.058;8.688;2023-04-21T04:22:29;38.75;;;24.83;;
51148;SDS011;37210;50.058;8.688;2023-04-21T04:24:58;38.35;;;25.17;;
51148;SDS011;37210;50.058;8.688;2023-04-21T04:27:26;64.82;;;29.48;;
51148;SDS011;37210;50.058;8.688;2023-04-21T04:29:54;77.45;;;27.63;;
51148;SDS011;37210;50.058;8.688;2023-04-21T04:32:24;72.50;;;27.55;;
51148;SDS011;37210;50.058;8.688;2023-04-21T04:34:53;67.28;;;25.40;;
51148;SDS011;37210;50.058;8.688;2023-04-21T04:37:22;80.75;;;27.40;;
51148;SDS011;37210;50.058;8.688;2023-04-21T04:39:51;94.28;;;29.20;;
51148;SDS011;37210;50.058;8.688;2023-04-21T04:42:19;52.05;;;25.33;;
51148;SDS011;37210;50.058;8.688;2023-04-21T04:44:47;93.03;;;28.92;;
51148;SDS011;37210;50.058;8.688;2023-04-21T04:47:18;86.47;;;28.92;;
51148;SDS011;37210;50.058;8.688;2023-04-21T04:49:48;113.72;;;31.05;;
51148;SDS011;37210;50.058;8.688;2023-04-21T04:52:16;115.65;;;33.65;;
51148;SDS011;37210;50.058;8.688;2023-04-21T04:54:44;42.95;;;27.10;;
51148;SDS011;37210;50.058;8.688;2023-04-21T04:57:12;48.60;;;26.38;;
51148;SDS011;37210;50.058;8.688;2023-04-21T04:59:40;36.15;;;25.27;;
51148;SDS011;37210;50.058;8.688;2023-04-21T05:02:08;58.80;;;27.27;;
51148;SDS011;37210;50.058;8.688;2023-04-21T05:04:37;34.08;;;26.48;;
51148;SDS011;37210;50.058;8.688;2023-04-21T05:07:07;46.65;;;26.38;;
51148;SDS011;37210;50.058;8.688;2023-04-21T05:09:34;36.28;;;24.63;;
51148;SDS011;37210;50.058;8.688;2023-04-21T05:12:02;60.17;;;28.40;;
51148;SDS011;37210;50.058;8.688;2023-04-21T05:14:31;32.10;;;25.75;;
51148;SDS011;37210;50.058;8.688;2023-04-21T05:17:02;35.75;;;25.70;;
51148;SDS011;37210;50.058;8.688;2023-04-21T05:19:33;29.20;;;24.40;;
51148;SDS011;37210;50.058;8.688;2023-04-21T05:22:07;33.45;;;25.05;;
51148;SDS011;37210;50.058;8.688;2023-04-21T05:24:35;28.17;;;24.85;;
51148;SDS011;37210;50.058;8.688;2023-04-21T05:27:03;29.05;;;25.17;;
51148;SDS011;37210;50.058;8.688;2023-04-21T05:29:32;33.10;;;26.75;;
51148;SDS011;37210;50.058;8.688;2023-04-21T05:32:03;29.67;;;24.52;;
51148;SDS011;37210;50.058;8.688;2023-04-21T05:34:31;31.70;;;25.23;;
51148;SDS011;37210;50.058;8.688;2023-04-21T05:36:59;28.10;;;25.20;;
51148;SDS011;37210;50.058;8.688;2023-04-21T05:39:29;27.67;;;24.75;;
51148;SDS011;37210;50.058;8.688;2023-04-21T05:41:58;36.50;;;26.05;;
51148;SDS011;37210;50.058;8.688;2023-04-21T05:44:30;28.17;;;25.17;;
51148;SDS011;37210;50.058;8.688;2023-04-21T05:46:58;28.35;;;25.35;;
51148;SDS011;37210;50.058;8.688;2023-04-21T05:49:26;27.85;;;24.95;;
51148;SDS011;37210;50.058;8.688;2023-04-21T05:51:54;27.42;;;24.63;;
51148;SDS011;37210;50.058;8.688;2023-04-21T05:54:22;28.05;;;25.02;;
51148;SDS011;37210;50.058;8.688;2023-04-21T05:56:51;27.95;;;25.15;;
51148;SDS011;37210;50.058;8.688;2023-04-21T05:59:22;26.40;;;23.60;;
51148;SDS011;37210;50.058;8.688;2023-04-21T06:01:54;27.17;;;24.38;;
51148;SDS011;37210;50.058;8.688;2023-04-21T06:04:25;27.48;;;24.63;;
51148;SDS011;37210;50.058;8.688;2023-04-21T06:06:56;26.13;;;23.20;;
51148;SDS011;37210;50.058;8.688;2023-04-21T06:09:24;26.05;;;23.33;;
51148;SDS011;37210;50.058;8.688;2023-04-21T06:11:53;25.48;;;22.77;;
51148;SDS011;37210;50.058;8.688;2023-04-21T06:14:22;28.25;;;25.38;;
51148;SDS011;37210;50.058;8.688;2023-04-21T06:16:50;27.83;;;25.02;;
51148;SDS011;37210;50.058;8.688;2023-04-21T06:19:18;27.80;;;24.63;;
51148;SDS011;37210;50.058;8.688;2023-04-21T06:21:47;26.63;;;23.88;;
51148;SDS011;37210;50.058;8.688;2023-04-21T06:24:16;27.88;;;25.02;;
51148;SDS011;37210;50.058;8.688;2023-04-21T06:26:49;28.48;;;25.52;;
51148;SDS011;37210;50.058;8.688;2023-04-21T06:29:19;26.75;;;24.10;;
51148;SDS011;37210;50.058;8.688;2023-04-21T06:31:47;26.00;;;23.27;;
51148;SDS011;37210;50.058;8.688;2023-04-21T06:34:15;27.23;;;24.27;;
51148;SDS011;37210;50.058;8.688;2023-04-21T06:36:44;25.92;;;23.40;;
51148;SDS011;37210;50.058;8.688;2023-04-21T06:39:12;25.95;;;23.38;;
51148;SDS011;37210;50.058;8.688;2023-04-21T06:41:40;27.00;;;24.15;;
51148;SDS011;37210;50.058;8.688;2023-04-21T06:44:11;27.77;;;24.90;;
51148;SDS011;37210;50.058;8.688;2023-04-21T06:46:42;28.48;;;25.35;;
51148;SDS011;37210;50.058;8.688;2023-04-21T06:49:10;28.73;;;24.52;;
51148;SDS011;37210;50.058;8.688;2023-04-21T06:51:38;26.08;;;23.42;;
51148;SDS011;37210;50.058;8.688;2023-04-21T06:54:06;26.15;;;23.35;;
51148;SDS011;37210;50.058;8.688;2023-04-21T06:56:38;26.60;;;23.52;;
51148;SDS011;37210;50.058;8.688;2023-04-21T06:59:08;25.48;;;22.88;;
51148;SDS011;37210;50.058;8.688;2023-04-21T07:01:36;25.80;;;22.38;;
51148;SDS011;37210;50.058;8.688;2023-04-21T07:04:05;25.23;;;22.65;;
51148;SDS011;37210;50.058;8.688;2023-04-21T07:06:33;24.77;;;22.20;;
51148;SDS011;37210;50.058;8.688;2023-04-21T07:09:01;25.85;;;22.10;;
51148;SDS011;37210;50.058;8.688;2023-04-21T07:11:28;23.45;;;20.98;;
51148;SDS011;37210;50.058;8.688;2023-04-21T07:13:56;24.98;;;22.30;;
51148;SDS011;37210;50.058;8.688;2023-04-21T07:16:30;25.88;;;23.17;;
51148;SDS011;37210;50.058;8.688;2023-04-21T07:19:06;25.73;;;23.02;;
51148;SDS011;37210;50.058;8.688;2023-04-21T07:21:34;25.90;;;23.30;;
51148;SDS011;37210;50.058;8.688;2023-04-21T07:24:02;25.45;;;22.20;;
51148;SDS011;37210;50.058;8.688;2023-04-21T07:26:36;25.75;;;22.52;;
51148;SDS011;37210;50.058;8.688;2023-04-21T07:29:12;25.20;;;22.35;;
51148;SDS011;37210;50.058;8.688;2023-04-21T07:31:45;24.88;;;22.17;;
51148;SDS011;37210;50.058;8.688;2023-04-21T07:34:26;24.73;;;22.05;;
51148;SDS011;37210;50.058;8.688;2023-04-21T07:37:04;24.65;;;22.05;;
51148;SDS011;37210;50.058;8.688;2023-04-21T07:39:31;24.27;;;21.80;;
51148;SDS011;37210;50.058;8.688;2023-04-21T07:41:59;23.60;;;21.30;;
51148;SDS011;37210;50.058;8.688;2023-04-21T07:44:27;25.58;;;22.80;;
51148;SDS011;37210;50.058;8.688;2023-04-21T07:46:55;24.33;;;21.73;;
51148;SDS011;37210;50.058;8.688;2023-04-21T07:49:24;23.45;;;20.95;;
51148;SDS011;37210;50.058;8.688;2023-04-21T07:51:56;23.13;;;20.73;;
51148;SDS011;37210;50.058;8.688;2023-04-21T07:54:28;23.30;;;20.95;;
51148;SDS011;37210;50.058;8.688;2023-04-21T07:57:03;23.67;;;20.95;;
51148;SDS011;37210;50.058;8.688;2023-04-21T07:59:32;22.92;;;20.08;;
51148;SDS011;37210;50.058;8.688;2023-04-21T08:02:00;23.88;;;21.42;;
51148;SDS011;37210;50.058;8.688;2023-04-21T08:04:30;22.70;;;20.30;;
51148;SDS011;37210;50.058;8.688;2023-04-21T08:07:03;23.75;;;21.33;;
51148;SDS011;37210;50.058;8.688;2023-04-21T08:09:43;24.95;;;22.30;;
51148;SDS011;37210;50.058;8.688;2023-04-21T08:12:14;22.27;;;20.08;;
51148;SDS011;37210;50.058;8.688;2023-04-21T08:14:49;24.23;;;21.25;;
51148;SDS011;37210;50.058;8.688;2023-04-21T08:17:17;23.40;;;20.98;;
51148;SDS011;37210;50.058;8.688;2023-04-21T08:19:51;23.13;;;19.85;;
51148;SDS011;37210;50.058;8.688;2023-04-21T08:22:23;22.42;;;20.13;;
51148;SDS011;37210;50.058;8.688;2023-04-21T08:24:52;23.15;;;20.20;;
51148;SDS011;37210;50.058;8.688;2023-04-21T08:27:20;21.60;;;19.38;;
51148;SDS011;37210;50.058;8.688;2023-04-21T08:29:48;23.70;;;20.17;;
51148;SDS011;37210;50.058;8.688;2023-04-21T08:32:16;22.42;;;20.15;;
51148;SDS011;37210;50.058;8.688;2023-04-21T08:34:49;22.90;;;20.60;;
51148;SDS011;37210;50.058;8.688;2023-04-21T08:37:19;25.55;;;22.40;;
51148;SDS011;37210;50.058;8.688;2023-04-21T08:39:47;22.63;;;20.35;;
51148;SDS011;37210;50.058;8.688;2023-04-21T08:42:16;22.80;;;20.40;;
51148;SDS011;37210;50.058;8.688;2023-04-21T08:44:44;22.45;;;20.10;;
51148;SDS011;37210;50.058;8.688;2023-04-21T08:47:14;27.45;;;24.17;;
51148;SDS011;37210;50.058;8.688;2023-04-21T08:49:43;22.25;;;20.05;;
51148;SDS011;37210;50.058;8.688;2023-04-21T08:52:15;24.92;;;22.23;;
51148;SDS011;37210;50.058;8.688;2023-04-21T08:54:43;24.35;;;21.27;;
51148;SDS011;37210;50.058;8.688;2023-04-21T08:57:16;23.30;;;20.80;;
51148;SDS011;37210;50.058;8.688;2023-04-21T08:59:44;23.02;;;20.60;;
51148;SDS011;37210;50.058;8.688;2023-04-21T09:02:12;22.40;;;20.05;;
51148;SDS011;37210;50.058;8.688;2023-04-21T09:04:42;21.58;;;19.30;;
51148;SDS011;37210;50.058;8.688;2023-04-21T09:07:11;21.17;;;18.95;;
51148;SDS011;37210;50.058;8.688;2023-04-21T09:09:57;26.02;;;23.45;;
51148;SDS011;37210;50.058;8.688;2023-04-21T09:12:28;23.70;;;21.15;;
51148;SDS011;37210;50.058;8.688;2023-04-21T09:14:56;24.15;;;21.52;;
51148;SDS011;37210;50.058;8.688;2023-04-21T09:17:26;25.48;;;22.77;;
51148;SDS011;37210;50.058;8.688;2023-04-21T09:19:57;25.08;;;22.05;;
51148;SDS011;37210;50.058;8.688;2023-04-21T09:22:42;21.98;;;19.67;;
51148;SDS011;37210;50.058;8.688;2023-04-21T09:25:12;23.88;;;21.25;;
51148;SDS011;37210;50.058;8.688;2023-04-21T09:27:42;22.65;;;20.27;;
51148;SDS011;37210;50.058;8.688;2023-04-21T09:30:10;24.60;;;21.17;;
51148;SDS011;37210;50.058;8.688;2023-04-21T09:32:38;24.67;;;22.10;;
51148;SDS011;37210;50.058;8.688;2023-04-21T09:35:07;24.25;;;21.15;;
51148;SDS011;37210;50.058;8.688;2023-04-21T09:37:36;23.90;;;21.35;;
51148;SDS011;37210;50.058;8.688;2023-04-21T09:40:06;24.48;;;21.90;;
51148;SDS011;37210;50.058;8.688;2023-04-21T09:42:38;23.60;;;20.95;;
51148;SDS011;37210;50.058;8.688;2023-04-21T09:45:06;25.33;;;21.40;;
51148;SDS011;37210;50.058;8.688;2023-04-21T09:47:36;23.67;;;21.23;;
51148;SDS011;37210;50.058;8.688;2023-04-21T09:50:10;23.80;;;20.65;;
51148;SDS011;37210;50.058;8.688;2023-04-21T09:52:39;24.17;;;21.55;;
51148;SDS011;37210;50.058;8.688;2023-04-21T09:55:11;22.48;;;20.05;;
51148;SDS011;37210;50.058;8.688;2023-04-21T09:57:40;23.10;;;20.63;;
51148;SDS011;37210;50.058;8.688;2023-04-21T10:00:10;22.33;;;19.92;;
51148;SDS011;37210;50.058;8.688;2023-04-21T10:02:41;22.80;;;20.30;;
51148;SDS011;37210;50.058;8.688;2023-04-21T10:05:10;23.15;;;20.45;;
51148;SDS011;37210;50.058;8.688;2023-04-21T10:07:38;21.10;;;18.65;;
51148;SDS011;37210;50.058;8.688;2023-04-21T10:10:06;21.90;;;19.60;;
51148;SDS011;37210;50.058;8.688;2023-04-21T10:12:43;20.48;;;18.45;;
51148;SDS011;37210;50.058;8.688;2023-04-21T10:20:54;20.02;;;17.90;;
51148;SDS011;37210;50.058;8.688;2023-04-21T10:23:30;20.73;;;18.58;;
51148;SDS011;37210;50.058;8.688;2023-04-21T10:26:05;19.83;;;17.27;;
51148;SDS011;37210;50.058;8.688;2023-04-21T10:28:38;20.65;;;18.52;;
51148;SDS011;37210;50.058;8.688;2023-04-21T10:31:18;20.23;;;18.20;;
51148;SDS011;37210;50.058;8.688;2023-04-21T10:37:07;17.88;;;16.10;;
51148;SDS011;37210;50.058;8.688;2023-04-21T10:39:45;18.90;;;17.00;;
51148;SDS011;37210;50.058;8.688;2023-04-21T10:42:21;18.40;;;16.60;;
51148;SDS011;37210;50.058;8.688;2023-04-21T10:45:04;17.45;;;15.60;;
51148;SDS011;37210;50.058;8.688;2023-04-21T10:47:38;17.23;;;15.48;;
51148;SDS011;37210;50.058;8.688;2023-04-21T10:50:12;18.98;;;16.55;;
51148;SDS011;37210;50.058;8.688;2023-04-21T10:52:52;18.35;;;16.20;;
51148;SDS011;37210;50.058;8.688;2023-04-21T10:55:24;17.45;;;15.60;;
51148;SDS011;37210;50.058;8.688;2023-04-21T10:57:56;17.60;;;15.57;;
51148;SDS011;37210;50.058;8.688;2023-04-21T11:00:27;16.95;;;15.25;;
51148;SDS011;37210;50.058;8.688;2023-04-21T11:02:55;17.70;;;15.90;;
51148;SDS011;37210;50.058;8.688;2023-04-21T11:05:39;19.98;;;16.77;;
51148;SDS011;37210;50.058;8.688;2023-04-21T11:08:21;17.27;;;15.27;;
51148;SDS011;37210;50.058;8.688;2023-04-21T11:10:50;17.63;;;15.52;;
51148;SDS011;37210;50.058;8.688;2023-04-21T11:13:22;18.38;;;16.10;;
51148;SDS011;37210;50.058;8.688;2023-04-21T11:15:57;17.23;;;15.52;;
51148;SDS011;37210;50.058;8.688;2023-04-21T11:18:35;18.70;;;16.02;;
51148;SDS011;37210;50.058;8.688;2023-04-21T11:21:17;17.50;;;15.63;;
51148;SDS011;37210;50.058;8.688;2023-04-21T11:24:04;17.55;;;15.77;;
51148;SDS011;37210;50.058;8.688;2023-04-21T11:27:29;17.02;;;15.20;;
51148;SDS011;37210;50.058;8.688;2023-04-21T11:30:01;17.55;;;15.65;;
51148;SDS011;37210;50.058;8.688;2023-04-21T11:32:30;17.02;;;15.10;;
51148;SDS011;37210;50.058;8.688;2023-04-21T11:34:58;18.25;;;16.02;;
51148;SDS011;37210;50.058;8.688;2023-04-21T11:37:26;17.67;;;15.98;;
51148;SDS011;37210;50.058;8.688;2023-04-21T11:39:56;17.25;;;15.52;;
51148;SDS011;37210;50.058;8.688;2023-04-21T11:42:25;17.38;;;15.57;;
51148;SDS011;37210;50.058;8.688;2023-04-21T11:44:54;18.08;;;16.20;;
51148;SDS011;37210;50.058;8.688;2023-04-21T11:47:24;18.08;;;16.33;;
51148;SDS011;37210;50.058;8.688;2023-04-21T11:49:54;17.80;;;15.93;;
51148;SDS011;37210;50.058;8.688;2023-04-21T11:52:23;16.02;;;14.43;;
51148;SDS011;37210;50.058;8.688;2023-04-21T11:54:53;16.10;;;14.45;;
51148;SDS011;37210;50.058;8.688;2023-04-21T11:57:23;16.30;;;14.60;;
51148;SDS011;37210;50.058;8.688;2023-04-21T11:59:52;17.80;;;15.73;;
51148;SDS011;37210;50.058;8.688;2023-04-21T12:02:21;17.10;;;14.98;;
51148;SDS011;37210;50.058;8.688;2023-04-21T12:04:55;14.90;;;13.45;;
51148;SDS011;37210;50.058;8.688;2023-04-21T12:07:26;15.52;;;12.95;;
51148;SDS011;37210;50.058;8.688;2023-04-21T12:09:55;17.95;;;14.07;;
51148;SDS011;37210;50.058;8.688;2023-04-21T12:12:23;14.45;;;13.05;;
51148;SDS011;37210;50.058;8.688;2023-04-21T12:14:51;14.02;;;12.60;;
51148;SDS011;37210;50.058;8.688;2023-04-21T12:17:19;15.52;;;14.07;;
51148;SDS011;37210;50.058;8.688;2023-04-21T12:19:48;14.85;;;13.43;;
51148;SDS011;37210;50.058;8.688;2023-04-21T12:22:16;15.15;;;13.57;;
51148;SDS011;37210;50.058;8.688;2023-04-21T12:24:44;15.02;;;13.57;;
51148;SDS011;37210;50.058;8.688;2023-04-21T12:27:12;15.88;;;14.18;;
51148;SDS011;37210;50.058;8.688;2023-04-21T12:29:40;14.93;;;13.52;;
51148;SDS011;37210;50.058;8.688;2023-04-21T12:32:07;14.55;;;13.15;;
51148;SDS011;37210;50.058;8.688;2023-04-21T12:34:35;14.13;;;12.70;;
51148;SDS011;37210;50.058;8.688;2023-04-21T12:37:04;14.30;;;12.80;;
51148;SDS011;37210;50.058;8.688;2023-04-21T12:39:32;14.93;;;13.38;;
51148;SDS011;37210;50.058;8.688;2023-04-21T12:41:59;13.73;;;12.43;;
51148;SDS011;37210;50.058;8.688;2023-04-21T12:44:27;13.80;;;12.18;;
51148;SDS011;37210;50.058;8.688;2023-04-21T12:46:55;14.40;;;13.00;;
51148;SDS011;37210;50.058;8.688;2023-04-21T12:49:23;14.50;;;13.00;;
51148;SDS011;37210;50.058;8.688;2023-04-21T12:51:51;14.07;;;12.73;;
51148;SDS011;37210;50.058;8.688;2023-04-21T12:54:20;13.02;;;11.50;;
51148;SDS011;37210;50.058;8.688;2023-04-21T12:56:47;12.00;;;10.80;;
51148;SDS011;37210;50.058;8.688;2023-04-21T12:59:14;12.88;;;11.68;;
51148;SDS011;37210;50.058;8.688;2023-04-21T13:01:42;12.80;;;11.63;;
51148;SDS011;37210;50.058;8.688;2023-04-21T13:04:09;13.10;;;11.85;;
51148;SDS011;37210;50.058;8.688;2023-04-21T13:06:37;11.68;;;10.48;;
51148;SDS011;37210;50.058;8.688;2023-04-21T13:09:05;14.13;;;12.82;;
51148;SDS011;37210;50.058;8.688;2023-04-21T13:11:34;12.63;;;11.32;;
51148;SDS011;37210;50.058;8.688;2023-04-21T13:14:01;12.63;;;11.23;;
51148;SDS011;37210;50.058;8.688;2023-04-21T13:16:29;11.50;;;10.40;;
51148;SDS011;37210;50.058;8.688;2023-04-21T13:18:57;11.30;;;10.18;;
51148;SDS011;37210;50.058;8.688;2023-04-21T13:21:24;11.57;;;10.57;;
51148;SDS011;37210;50.058;8.688;2023-04-21T13:23:52;11.98;;;10.75;;
51148;SDS011;37210;50.058;8.688;2023-04-21T13:26:21;11.75;;;10.52;;
51148;SDS011;37210;50.058;8.688;2023-04-21T13:28:49;10.95;;;9.88;;
51148;SDS011;37210;50.058;8.688;2023-04-21T13:31:17;11.90;;;10.80;;
51148;SDS011;37210;50.058;8.688;2023-04-21T13:33:44;11.23;;;10.18;;
51148;SDS011;37210;50.058;8.688;2023-04-21T13:36:12;10.52;;;9.38;;
51148;SDS011;37210;50.058;8.688;2023-04-21T13:38:39;10.55;;;9.60;;
51148;SDS011;37210;50.058;8.688;2023-04-21T13:41:08;10.30;;;9.40;;
51148;SDS011;37210;50.058;8.688;2023-04-21T13:43:35;10.63;;;9.63;;
51148;SDS011;37210;50.058;8.688;2023-04-21T13:46:04;9.85;;;8.95;;
51148;SDS011;37210;50.058;8.688;2023-04-21T13:48:32;11.60;;;10.40;;
51148;SDS011;37210;50.058;8.688;2023-04-21T13:50:59;12.43;;;9.70;;
51148;SDS011;37210;50.058;8.688;2023-04-21T13:53:27;11.10;;;10.00;;
51148;SDS011;37210;50.058;8.688;2023-04-21T13:55:54;10.45;;;9.45;;
51148;SDS011;37210;50.058;8.688;2023-04-21T13:58:24;11.40;;;10.40;;
51148;SDS011;37210;50.058;8.688;2023-04-21T14:00:52;10.15;;;9.15;;
51148;SDS011;37210;50.058;8.688;2023-04-21T14:03:20;10.40;;;9.43;;
51148;SDS011;37210;50.058;8.688;2023-04-21T14:05:48;10.05;;;9.05;;
51148;SDS011;37210;50.058;8.688;2023-04-21T14:08:15;9.48;;;8.57;;
51148;SDS011;37210;50.058;8.688;2023-04-21T14:10:43;9.68;;;8.77;;
51148;SDS011;37210;50.058;8.688;2023-04-21T14:13:10;9.20;;;8.30;;
51148;SDS011;37210;50.058;8.688;2023-04-21T14:15:38;9.88;;;8.95;;
51148;SDS011;37210;50.058;8.688;2023-04-21T14:18:05;10.02;;;9.07;;
51148;SDS011;37210;50.058;8.688;2023-04-21T14:20:34;9.52;;;8.65;;
51148;SDS011;37210;50.058;8.688;2023-04-21T14:23:03;9.23;;;8.40;;
51148;SDS011;37210;50.058;8.688;2023-04-21T14:25:30;8.57;;;7.70;;
51148;SDS011;37210;50.058;8.688;2023-04-21T14:27:58;9.43;;;8.18;;
51148;SDS011;37210;50.058;8.688;2023-04-21T14:30:25;8.88;;;7.97;;
51148;SDS011;37210;50.058;8.688;2023-04-21T14:32:53;9.38;;;8.38;;
51148;SDS011;37210;50.058;8.688;2023-04-21T14:35:20;8.90;;;8.00;;
51148;SDS011;37210;50.058;8.688;2023-04-21T14:37:49;9.57;;;8.57;;
51148;SDS011;37210;50.058;8.688;2023-04-21T14:40:17;9.45;;;8.55;;
51148;SDS011;37210;50.058;8.688;2023-04-21T14:42:45;9.35;;;8.40;;
51148;SDS011;37210;50.058;8.688;2023-04-21T14:45:12;9.70;;;8.90;;
51148;SDS011;37210;50.058;8.688;2023-04-21T14:47:41;10.07;;;9.20;;